createdAt,value
2023-02-28T00:01:29.678Z,69.30
2023-02-28T00:03:58.195Z,69.30
2023-02-28T00:06:26.084Z,70.32
2023-02-28T00:08:54.102Z,69.38
2023-02-28T00:11:23.127Z,69.62
2023-02-28T00:13:51.360Z,69.87
2023-02-28T00:16:21.120Z,68.76
2023-02-28T00:18:49.852Z,69.25
2023-02-28T00:21:18.419Z,68.08
2023-02-28T00:23:46.361Z,68.72
2023-02-28T00:26:14.243Z,68.67
2023-02-28T00:28:48.268Z,68.58
2023-02-28T00:31:15.874Z,68.81
2023-02-28T00:33:44.252Z,68.61
2023-02-28T00:36:13.632Z,69.00
2023-02-28T00:38:42.883Z,68.61
2023-02-28T00:41:11.195Z,68.32
2023-02-28T00:43:41.656Z,68.03
2023-02-28T00:46:10.677Z,68.20
2023-02-28T00:48:38.892Z,68.56
2023-02-28T00:51:06.882Z,68.77
2023-02-28T00:53:35.163Z,68.83
2023-02-28T00:56:03.241Z,69.24
2023-02-28T00:58:31.642Z,69.30
2023-02-28T01:00:59.260Z,69.49
2023-02-28T01:03:28.802Z,68.97
2023-02-28T01:05:56.358Z,68.63
2023-02-28T01:08:24.305Z,69.42
2023-02-28T01:10:52.100Z,69.63
2023-02-28T01:13:20.793Z,69.56
2023-02-28T01:15:53.111Z,69.04
2023-02-28T01:18:22.962Z,69.23
2023-02-28T01:20:52.691Z,69.52
2023-02-28T01:23:21.220Z,69.83
2023-02-28T01:25:49.183Z,69.53
2023-02-28T01:28:17.350Z,69.15
2023-02-28T01:30:44.998Z,69.93
2023-02-28T01:33:12.618Z,70.17
2023-02-28T01:35:40.323Z,69.94
2023-02-28T01:38:21.378Z,70.04
2023-02-28T01:40:51.010Z,69.91
2023-02-28T01:43:23.238Z,70.35
2023-02-28T01:45:51.125Z,70.05
2023-02-28T01:48:19.711Z,70.06
2023-02-28T01:50:49.788Z,70.43
2023-02-28T01:53:23.706Z,70.83
2023-02-28T01:55:54.188Z,70.54
2023-02-28T01:58:22.823Z,70.59
2023-02-28T02:00:50.928Z,70.97
2023-02-28T02:03:22.139Z,71.09
2023-02-28T02:05:50.525Z,71.21
2023-02-28T02:08:23.571Z,71.14
2023-02-28T02:10:55.058Z,70.72
2023-02-28T02:14:04.710Z,71.59
2023-02-28T02:16:47.471Z,71.22
2023-02-28T02:19:41.976Z,71.39
2023-02-28T02:22:31.283Z,71.59
2023-02-28T02:25:15.794Z,71.51
2023-02-28T02:28:19.445Z,72.04
2023-02-28T02:31:07.868Z,72.03
2023-02-28T02:34:21.781Z,71.59
2023-02-28T02:36:53.616Z,71.23
2023-02-28T02:39:30.149Z,71.31
2023-02-28T02:42:02.780Z,71.05
2023-02-28T02:44:42.401Z,71.04
2023-02-28T02:47:13.778Z,71.48
2023-02-28T02:49:46.784Z,71.94
2023-02-28T02:52:17.755Z,71.55
2023-02-28T02:54:48.961Z,72.12
2023-02-28T02:57:25.482Z,71.97
2023-02-28T02:59:57.617Z,72.57
2023-02-28T03:02:26.967Z,72.62
2023-02-28T03:05:03.183Z,72.95
2023-02-28T03:07:30.880Z,72.41
2023-02-28T03:09:59.603Z,72.42
2023-02-28T03:12:41.858Z,72.34
2023-02-28T03:15:20.554Z,73.17
2023-02-28T03:18:03.797Z,72.85
2023-02-28T03:20:42.855Z,73.32
2023-02-28T03:23:18.556Z,73.29
2023-02-28T03:25:58.610Z,73.11
2023-02-28T03:28:36.349Z,73.52
2023-02-28T03:31:14.596Z,73.80
2023-02-28T03:33:45.732Z,73.63
2023-02-28T03:36:18.705Z,73.38
2023-02-28T03:38:50.972Z,73.39
2023-02-28T03:41:23.028Z,73.36
2023-02-28T03:43:54.412Z,73.24
2023-02-28T03:46:29.003Z,73.70
2023-02-28T03:49:01.452Z,73.59
2023-02-28T03:51:32.621Z,73.73
2023-02-28T03:54:05.287Z,73.66
2023-02-28T03:56:37.028Z,73.67
2023-02-28T03:59:09.182Z,73.72
2023-02-28T04:01:40.001Z,73.84
2023-02-28T04:04:07.687Z,74.13
2023-02-28T04:06:37.178Z,73.76
2023-02-28T04:09:06.071Z,74.18
2023-02-28T04:11:37.467Z,74.12
2023-02-28T04:14:05.942Z,74.20
2023-02-28T04:16:36.272Z,74.22
2023-02-28T04:19:05.775Z,74.37
2023-02-28T04:21:37.332Z,74.51
2023-02-28T04:24:06.019Z,74.29
2023-02-28T04:26:35.052Z,74.30
2023-02-28T04:29:04.537Z,75.10
2023-02-28T04:31:33.130Z,74.44
2023-02-28T04:34:01.284Z,74.75
2023-02-28T04:36:29.482Z,74.62
2023-02-28T04:38:58.612Z,74.83
2023-02-28T04:41:27.073Z,75.31
2023-02-28T04:43:55.214Z,74.99
2023-02-28T04:46:22.813Z,74.81
2023-02-28T04:48:50.922Z,75.28
2023-02-28T04:51:20.681Z,74.62
2023-02-28T04:53:49.861Z,74.69
2023-02-28T04:56:19.672Z,74.38
2023-02-28T04:58:47.555Z,74.35
2023-02-28T05:01:22.274Z,74.56
2023-02-28T05:03:50.297Z,74.86
2023-02-28T05:06:19.166Z,74.83
2023-02-28T05:08:47.278Z,74.97
2023-02-28T05:11:20.690Z,74.30
2023-02-28T05:13:49.998Z,74.09
2023-02-28T05:16:18.729Z,74.44
2023-02-28T05:18:47.493Z,74.63
2023-02-28T05:21:29.710Z,74.60
2023-02-28T05:23:59.148Z,74.37
2023-02-28T05:26:29.151Z,74.54
2023-02-28T05:28:57.998Z,74.31
2023-02-28T05:31:25.932Z,74.48
2023-02-28T05:33:53.840Z,73.89
2023-02-28T05:36:21.505Z,74.18
2023-02-28T05:38:50.309Z,74.55
2023-02-28T05:41:20.227Z,74.80
2023-02-28T05:43:50.060Z,74.43
2023-02-28T05:46:17.982Z,73.80
2023-02-28T05:48:48.967Z,73.81
2023-02-28T05:51:16.954Z,74.11
2023-02-28T05:53:45.177Z,74.33
2023-02-28T05:56:12.814Z,74.18
2023-02-28T05:58:41.241Z,73.63
2023-02-28T06:01:26.326Z,73.84
2023-02-28T06:03:54.661Z,74.25
2023-02-28T06:06:22.226Z,74.37
2023-02-28T06:08:50.142Z,74.42
2023-02-28T06:11:17.703Z,73.82
2023-02-28T06:13:45.290Z,74.03
2023-02-28T06:16:13.768Z,73.88
2023-02-28T06:18:42.923Z,74.04
2023-02-28T06:21:10.530Z,74.03
2023-02-28T06:23:38.664Z,73.63
2023-02-28T06:26:06.785Z,73.81
2023-02-28T06:28:34.772Z,73.75
2023-02-28T06:31:08.659Z,73.35
2023-02-28T06:33:37.082Z,73.46
2023-02-28T06:36:06.932Z,73.72
2023-02-28T06:38:34.910Z,73.76
2023-02-28T06:41:03.563Z,73.25
2023-02-28T06:43:33.875Z,73.46
2023-02-28T06:46:03.389Z,73.00
2023-02-28T06:48:31.334Z,72.61
2023-02-28T06:51:04.642Z,73.62
2023-02-28T06:53:34.411Z,73.02
2023-02-28T06:56:06.518Z,73.63
2023-02-28T06:58:34.772Z,73.77
2023-02-28T07:01:02.905Z,73.44
2023-02-28T07:03:33.963Z,73.17
2023-02-28T07:06:02.109Z,73.36
2023-02-28T07:08:30.641Z,73.18
2023-02-28T07:11:00.097Z,73.25
2023-02-28T07:13:28.853Z,73.89
2023-02-28T07:15:58.163Z,73.38
2023-02-28T07:18:26.236Z,73.28
2023-02-28T07:20:55.139Z,73.07
2023-02-28T07:23:23.120Z,73.50
2023-02-28T07:25:52.150Z,73.39
2023-02-28T07:28:21.512Z,72.93
2023-02-28T07:30:49.367Z,72.71
2023-02-28T07:33:17.160Z,72.44
2023-02-28T07:35:45.930Z,72.63
2023-02-28T07:38:14.621Z,72.20
2023-02-28T07:40:42.505Z,72.20
2023-02-28T07:43:10.181Z,72.46
2023-02-28T07:45:40.100Z,72.26
2023-02-28T07:48:07.832Z,72.44
2023-02-28T07:50:36.223Z,72.34
2023-02-28T07:53:03.927Z,72.54
2023-02-28T07:55:32.209Z,72.40
2023-02-28T07:58:00.624Z,72.70
2023-02-28T08:00:30.337Z,72.29
2023-02-28T08:02:59.797Z,72.30
2023-02-28T08:05:27.753Z,71.71
2023-02-28T08:07:55.653Z,72.50
2023-02-28T08:10:23.773Z,72.10
2023-02-28T08:12:51.582Z,72.06
2023-02-28T08:15:19.787Z,71.43
2023-02-28T08:17:47.329Z,72.11
2023-02-28T08:20:16.826Z,71.93
2023-02-28T08:22:46.002Z,71.42
2023-02-28T08:25:14.006Z,70.99
2023-02-28T08:27:42.114Z,71.15
2023-02-28T08:30:12.250Z,71.11
2023-02-28T08:32:40.309Z,71.31
2023-02-28T08:35:10.081Z,71.20
2023-02-28T08:37:39.352Z,70.58
2023-02-28T08:40:08.659Z,70.84
2023-02-28T08:42:36.628Z,70.59
2023-02-28T08:45:05.378Z,71.48
2023-02-28T08:47:32.956Z,70.41
2023-02-28T08:50:00.838Z,70.31
2023-02-28T08:52:28.409Z,70.90
2023-02-28T08:54:58.352Z,70.65
2023-02-28T08:57:27.109Z,70.00
2023-02-28T08:59:55.509Z,71.46
2023-02-28T09:02:23.096Z,70.47
2023-02-28T09:04:51.706Z,70.13
2023-02-28T09:07:19.255Z,69.95
2023-02-28T09:09:55.823Z,70.43
2023-02-28T09:12:25.850Z,69.84
2023-02-28T09:14:57.861Z,69.59
2023-02-28T09:17:30.414Z,69.48
2023-02-28T09:19:58.981Z,69.26
2023-02-28T09:22:28.063Z,69.68
2023-02-28T09:24:55.630Z,70.10
2023-02-28T09:27:25.051Z,69.93
2023-02-28T09:29:52.688Z,69.02
2023-02-28T09:32:21.137Z,68.89
2023-02-28T09:34:48.732Z,68.58
2023-02-28T09:37:16.543Z,68.89
2023-02-28T09:39:44.134Z,68.47
2023-02-28T09:42:23.784Z,68.70
2023-02-28T09:44:53.107Z,67.59
2023-02-28T09:47:29.140Z,68.21
2023-02-28T09:50:00.417Z,67.77
2023-02-28T09:52:31.972Z,68.62
2023-02-28T09:55:03.758Z,68.56
2023-02-28T09:57:37.344Z,69.00
2023-02-28T10:00:16.862Z,68.21
2023-02-28T10:03:00.906Z,68.08
2023-02-28T10:05:33.244Z,67.46
2023-02-28T10:08:08.869Z,68.64
2023-02-28T10:10:40.862Z,68.01
2023-02-28T10:13:17.236Z,68.99
2023-02-28T10:15:49.668Z,68.30
2023-02-28T10:18:25.484Z,66.99
2023-02-28T10:20:55.135Z,66.74
2023-02-28T10:23:25.792Z,67.12
2023-02-28T10:25:59.292Z,67.38
2023-02-28T10:28:28.187Z,66.86
2023-02-28T10:30:59.598Z,66.99
2023-02-28T10:33:30.913Z,67.39
2023-02-28T10:36:00.170Z,66.39
2023-02-28T10:38:31.106Z,66.52
2023-02-28T10:41:09.806Z,66.32
2023-02-28T10:43:38.633Z,66.17
2023-02-28T10:46:16.313Z,65.11
2023-02-28T10:48:48.931Z,64.78
2023-02-28T10:51:20.414Z,65.40
2023-02-28T10:54:01.233Z,65.61
2023-02-28T10:56:29.987Z,64.22
2023-02-28T10:59:00.509Z,64.99
2023-02-28T11:01:40.400Z,64.66
2023-02-28T11:04:20.298Z,63.32
2023-02-28T11:06:49.348Z,64.72
2023-02-28T11:09:24.768Z,65.07
2023-02-28T11:11:53.702Z,64.28
2023-02-28T11:14:23.959Z,65.39
2023-02-28T11:16:54.242Z,63.45
2023-02-28T11:19:27.132Z,63.69
2023-02-28T11:21:59.467Z,62.84
2023-02-28T11:24:31.756Z,63.62
2023-02-28T11:27:00.171Z,63.13
2023-02-28T11:29:29.812Z,63.88
2023-02-28T11:32:13.268Z,63.53
2023-02-28T11:34:42.718Z,63.21
2023-02-28T11:37:15.687Z,60.94
2023-02-28T11:39:43.621Z,60.00
2023-02-28T11:42:34.950Z,57.44
2023-02-28T11:45:18.898Z,58.03
2023-02-28T11:47:55.223Z,58.62
2023-02-28T11:50:38.672Z,58.07
2023-02-28T11:53:16.138Z,59.12
2023-02-28T11:55:47.995Z,59.78
2023-02-28T11:58:35.364Z,60.96
2023-02-28T12:01:16.946Z,59.24
2023-02-28T12:04:00.788Z,59.18
2023-02-28T12:06:35.283Z,59.99
2023-02-28T12:09:15.227Z,59.90
2023-02-28T12:11:53.041Z,59.54
2023-02-28T12:14:36.445Z,60.47
2023-02-28T12:17:18.348Z,59.48
2023-02-28T12:19:52.901Z,57.74
2023-02-28T12:22:32.275Z,56.87
2023-02-28T12:25:25.499Z,56.77
2023-02-28T12:27:55.240Z,57.51
2023-02-28T12:30:27.238Z,57.43
2023-02-28T12:32:58.858Z,57.56
2023-02-28T12:35:34.345Z,57.50
2023-02-28T12:38:07.966Z,58.63
2023-02-28T12:40:45.562Z,57.19
2023-02-28T12:43:16.040Z,56.12
2023-02-28T12:45:49.621Z,56.58
2023-02-28T12:48:22.615Z,55.89
2023-02-28T12:50:52.383Z,55.19
2023-02-28T12:53:28.446Z,54.81
2023-02-28T12:56:09.539Z,53.98
2023-02-28T12:58:41.657Z,54.87
2023-02-28T13:01:32.064Z,54.51
2023-02-28T13:04:28.772Z,54.81
2023-02-28T13:07:13.575Z,55.02
2023-02-28T13:09:42.368Z,55.28
2023-02-28T13:12:16.497Z,55.52
2023-02-28T13:14:45.278Z,55.96
2023-02-28T13:17:14.879Z,55.25
2023-02-28T13:19:46.169Z,56.31
2023-02-28T13:22:21.597Z,56.06
2023-02-28T13:24:52.546Z,55.94
2023-02-28T13:27:37.696Z,56.24
2023-02-28T13:30:43.474Z,55.19
2023-02-28T13:33:26.807Z,56.15
2023-02-28T13:36:24.748Z,56.79
2023-02-28T13:38:56.646Z,56.72
2023-02-28T13:41:48.651Z,59.26
2023-02-28T13:44:19.622Z,56.58
2023-02-28T13:47:27.055Z,56.81
2023-02-28T13:49:55.954Z,57.38
2023-02-28T13:52:26.088Z,56.96
2023-02-28T13:55:19.222Z,57.49
2023-02-28T13:58:01.216Z,57.34
2023-02-28T14:00:43.641Z,58.25
2023-02-28T14:03:31.316Z,58.54
2023-02-28T14:06:18.902Z,58.27
2023-02-28T14:08:57.423Z,58.62
2023-02-28T14:11:33.247Z,59.33
2023-02-28T14:14:02.383Z,59.40
2023-02-28T14:16:40.174Z,59.88
2023-02-28T14:19:14.214Z,60.15
2023-02-28T14:21:52.917Z,60.42
2023-02-28T14:24:53.952Z,59.69
2023-02-28T14:27:44.290Z,60.15
2023-02-28T14:30:33.260Z,60.17
2023-02-28T14:33:14.298Z,59.93
2023-02-28T14:35:53.097Z,60.58
2023-02-28T14:38:25.273Z,60.70
2023-02-28T14:40:55.377Z,61.31
2023-02-28T14:43:27.056Z,60.45
2023-02-28T14:45:59.093Z,60.23
2023-02-28T14:48:28.192Z,60.60
2023-02-28T14:50:58.875Z,61.21
2023-02-28T14:53:29.378Z,60.06
2023-02-28T14:55:57.698Z,59.01
2023-02-28T14:58:29.117Z,58.82
2023-02-28T15:00:59.148Z,59.76
2023-02-28T15:03:33.240Z,60.27
2023-02-28T15:06:03.446Z,60.13
2023-02-28T15:08:36.048Z,61.01
2023-02-28T15:11:06.978Z,60.84
2023-02-28T15:13:42.273Z,60.35
2023-02-28T15:16:14.360Z,60.09
2023-02-28T15:18:49.077Z,60.01
2023-02-28T15:21:20.129Z,59.86
2023-02-28T15:23:51.562Z,59.84
2023-02-28T15:26:22.724Z,59.68
2023-02-28T15:28:54.834Z,59.78
2023-02-28T15:31:28.270Z,60.07
2023-02-28T15:33:57.800Z,60.92
2023-02-28T15:36:31.169Z,60.17
2023-02-28T15:39:10.547Z,60.81
2023-02-28T15:41:43.250Z,60.51
2023-02-28T15:44:27.716Z,60.39
2023-02-28T15:47:00.683Z,60.53
2023-02-28T15:49:28.409Z,60.61
2023-02-28T15:51:59.813Z,60.35
2023-02-28T15:54:32.542Z,60.23
2023-02-28T15:57:07.199Z,60.28
2023-02-28T15:59:38.075Z,61.16
2023-02-28T16:02:18.611Z,61.29
2023-02-28T16:05:00.833Z,61.83
2023-02-28T16:07:29.235Z,62.12
2023-02-28T16:09:56.915Z,60.77
2023-02-28T16:12:28.905Z,60.86
2023-02-28T16:14:59.654Z,61.55
2023-02-28T16:17:29.715Z,61.51
2023-02-28T16:19:57.941Z,61.25
2023-02-28T16:22:26.089Z,61.35
2023-02-28T16:24:53.876Z,61.60
2023-02-28T16:27:27.482Z,61.99
2023-02-28T16:29:55.560Z,62.40
2023-02-28T16:32:24.955Z,62.74
2023-02-28T16:34:52.639Z,62.72
2023-02-28T16:37:20.762Z,62.60
2023-02-28T16:39:50.328Z,62.19
2023-02-28T16:42:27.296Z,62.00
2023-02-28T16:44:56.203Z,61.63
2023-02-28T16:47:27.923Z,61.69
2023-02-28T16:49:55.512Z,61.53
2023-02-28T16:52:23.104Z,61.83
2023-02-28T16:54:50.677Z,62.24
2023-02-28T16:57:22.963Z,63.17
2023-02-28T16:59:51.970Z,64.20
2023-02-28T17:02:21.737Z,65.30
2023-02-28T17:04:50.877Z,66.16
2023-02-28T17:07:18.743Z,66.27
2023-02-28T17:09:47.132Z,67.24
2023-02-28T17:12:15.402Z,67.23
2023-02-28T17:14:43.001Z,67.15
2023-02-28T17:17:17.573Z,67.92
2023-02-28T17:19:45.176Z,67.76
2023-02-28T17:22:14.526Z,68.49
2023-02-28T17:24:42.255Z,68.27
2023-02-28T17:27:13.444Z,69.21
2023-02-28T17:29:41.311Z,69.50
2023-02-28T17:32:17.737Z,70.44
2023-02-28T17:34:46.897Z,69.42
2023-02-28T17:37:16.136Z,70.32
2023-02-28T17:39:43.759Z,70.62
2023-02-28T17:42:11.855Z,69.95
2023-02-28T17:44:39.590Z,70.80
2023-02-28T17:47:07.587Z,70.42
2023-02-28T17:49:35.574Z,70.96
2023-02-28T17:52:03.382Z,70.57
2023-02-28T17:54:32.777Z,70.41
2023-02-28T17:57:01.795Z,70.16
2023-02-28T17:59:34.155Z,70.83
2023-02-28T18:02:02.612Z,71.17
2023-02-28T18:04:30.275Z,70.90
2023-02-28T18:07:01.108Z,71.20
2023-02-28T18:09:29.109Z,72.18
2023-02-28T18:11:58.988Z,72.21
2023-02-28T18:14:27.466Z,71.90
2023-02-28T18:16:57.749Z,71.93
2023-02-28T18:19:25.651Z,72.71
2023-02-28T18:21:55.040Z,72.00
2023-02-28T18:24:24.373Z,72.16
2023-02-28T18:26:52.412Z,72.30
2023-02-28T18:29:23.503Z,72.68
2023-02-28T18:31:53.820Z,72.34
2023-02-28T18:34:22.566Z,72.75
2023-02-28T18:36:53.485Z,73.51
2023-02-28T18:39:21.347Z,73.32
2023-02-28T18:41:48.957Z,73.31
2023-02-28T18:44:20.204Z,73.96
2023-02-28T18:46:50.124Z,74.06
2023-02-28T18:49:18.393Z,74.24
2023-02-28T18:51:46.599Z,74.15
2023-02-28T18:54:16.277Z,73.90
2023-02-28T18:56:44.503Z,74.25
2023-02-28T18:59:12.934Z,73.50
2023-02-28T19:01:40.954Z,73.80
2023-02-28T19:04:14.404Z,73.36
2023-02-28T19:06:42.835Z,72.57
2023-02-28T19:09:11.119Z,72.75
2023-02-28T19:11:39.295Z,71.68
2023-02-28T19:14:09.824Z,70.79
2023-02-28T19:16:37.708Z,70.77
2023-02-28T19:19:05.993Z,70.88
2023-02-28T19:21:36.496Z,71.36
2023-02-28T19:24:05.174Z,71.10
2023-02-28T19:26:32.744Z,71.03
2023-02-28T19:29:03.462Z,72.28
2023-02-28T19:31:31.685Z,72.44
2023-02-28T19:33:59.481Z,72.20
2023-02-28T19:36:27.504Z,73.19
2023-02-28T19:38:56.438Z,72.93
2023-02-28T19:41:24.298Z,72.82
2023-02-28T19:43:54.211Z,72.34
2023-02-28T19:46:21.845Z,72.96
2023-02-28T19:48:49.698Z,72.85
2023-02-28T19:53:50.344Z,72.75
2023-02-28T19:56:19.265Z,72.83
2023-02-28T19:58:47.194Z,72.45
2023-02-28T20:01:17.826Z,73.01
2023-02-28T20:03:48.966Z,72.93
2023-02-28T20:06:16.957Z,72.61
2023-02-28T20:08:45.303Z,71.58
2023-02-28T20:11:15.542Z,71.68
2023-02-28T20:13:45.331Z,71.39
2023-02-28T20:16:14.521Z,71.27
2023-02-28T20:18:44.443Z,71.84
2023-02-28T20:21:13.871Z,72.11
2023-02-28T20:23:43.555Z,71.67
2023-02-28T20:26:11.602Z,71.93
2023-02-28T20:28:40.324Z,72.01
2023-02-28T20:31:14.393Z,72.75
2023-02-28T20:33:42.691Z,72.20
2023-02-28T20:36:12.436Z,72.37
2023-02-28T20:38:43.515Z,73.06
2023-02-28T20:41:11.379Z,72.52
2023-02-28T20:43:39.780Z,73.53
2023-02-28T20:46:07.556Z,73.13
2023-02-28T20:48:37.178Z,73.21
2023-02-28T20:51:06.240Z,73.57
2023-02-28T20:53:35.783Z,73.34
2023-02-28T20:56:05.858Z,73.71
2023-02-28T20:58:37.345Z,73.18
2023-02-28T21:01:15.818Z,73.16
2023-02-28T21:03:46.381Z,73.80
2023-02-28T21:06:15.398Z,73.69
2023-02-28T21:08:43.723Z,73.86
2023-02-28T21:11:14.065Z,73.17
2023-02-28T21:13:43.144Z,73.38
2023-02-28T21:16:13.262Z,73.15
2023-02-28T21:18:41.401Z,72.40
2023-02-28T21:21:14.015Z,72.19
2023-02-28T21:23:42.483Z,72.66
2023-02-28T21:26:12.436Z,72.37
2023-02-28T21:28:43.914Z,72.87
2023-02-28T21:31:14.186Z,72.75
2023-02-28T21:33:41.818Z,72.91
2023-02-28T21:36:14.212Z,72.74
2023-02-28T21:38:43.105Z,72.72
2023-02-28T21:41:13.550Z,72.62
2023-02-28T21:43:43.718Z,72.80
2023-02-28T21:46:13.308Z,73.30
2023-02-28T21:48:41.461Z,73.15
2023-02-28T21:51:13.199Z,73.74
2023-02-28T21:53:42.012Z,73.19
2023-02-28T21:56:14.456Z,74.00
2023-02-28T21:58:42.374Z,74.72
2023-02-28T22:01:12.207Z,73.79
2023-02-28T22:03:40.610Z,74.18
2023-02-28T22:06:15.092Z,73.97
2023-02-28T22:08:43.348Z,74.02
2023-02-28T22:11:11.822Z,73.67
2023-02-28T22:13:40.303Z,73.90
2023-02-28T22:16:10.873Z,73.57
2023-02-28T22:18:39.394Z,73.82
2023-02-28T22:21:07.907Z,73.47
2023-02-28T22:23:38.135Z,73.96
2023-02-28T22:26:07.787Z,73.98
2023-02-28T22:28:36.456Z,73.43
2023-02-28T22:31:14.156Z,73.80
2023-02-28T22:33:41.862Z,73.40
2023-02-28T22:36:12.149Z,73.76
2023-02-28T22:38:41.891Z,74.41
2023-02-28T22:41:11.734Z,74.34
2023-02-28T22:43:40.322Z,74.57
2023-02-28T22:46:10.250Z,74.97
2023-02-28T22:48:38.289Z,75.10
2023-02-28T22:51:08.663Z,74.80
2023-02-28T22:53:36.901Z,75.02
2023-02-28T22:56:07.900Z,75.03
2023-02-28T22:58:36.098Z,75.02
2023-02-28T23:01:08.481Z,75.89
2023-02-28T23:03:36.243Z,75.43
2023-02-28T23:06:13.594Z,75.73
2023-02-28T23:08:41.573Z,75.69
2023-02-28T23:11:12.198Z,75.24
2023-02-28T23:13:39.822Z,75.46
2023-02-28T23:16:09.199Z,74.54
2023-02-28T23:18:36.817Z,74.15
2023-02-28T23:21:05.190Z,73.74
2023-02-28T23:23:32.737Z,74.46
2023-02-28T23:26:00.300Z,73.83
2023-02-28T23:28:31.235Z,73.90
2023-02-28T23:31:04.697Z,74.00
2023-02-28T23:33:32.770Z,74.01
2023-02-28T23:36:08.275Z,73.73
2023-02-28T23:38:35.861Z,73.07
2023-02-28T23:41:03.754Z,73.57
2023-02-28T23:43:32.648Z,73.47
2023-02-28T23:46:01.124Z,74.00
2023-02-28T23:48:28.763Z,73.54
2023-02-28T23:51:00.980Z,73.76
2023-02-28T23:53:32.386Z,73.56
2023-02-28T23:56:01.830Z,74.00
2023-02-28T23:58:30.211Z,73.71
